createdAt,value
2016-12-14T00:00:11.720Z,16.60
2016-12-14T00:01:11.765Z,16.60
2016-12-14T00:02:11.984Z,16.60
2016-12-14T00:03:11.496Z,16.60
2016-12-14T00:04:11.784Z,16.60
2016-12-14T00:05:12.947Z,16.70
2016-12-14T00:06:13.785Z,16.60
2016-12-14T00:07:12.553Z,16.70
2016-12-14T00:08:11.773Z,16.70
2016-12-14T00:09:12.504Z,16.70
2016-12-14T00:10:13.383Z,16.70
2016-12-14T00:11:11.657Z,16.70
2016-12-14T00:12:12.654Z,16.70
2016-12-14T00:13:13.499Z,16.70
2016-12-14T00:14:11.818Z,16.60
2016-12-14T00:15:12.461Z,16.70
2016-12-14T00:16:12.331Z,16.60
2016-12-14T00:17:11.763Z,16.70
2016-12-14T00:18:12.416Z,16.70
2016-12-14T00:19:11.800Z,16.60
2016-12-14T00:20:12.365Z,16.70
2016-12-14T00:21:13.401Z,16.70
2016-12-14T00:22:11.815Z,16.70
2016-12-14T00:23:10.262Z,16.70
2016-12-14T00:24:12.454Z,16.70
2016-12-14T00:25:11.765Z,16.70
2016-12-14T00:26:13.371Z,16.70
2016-12-14T00:27:11.742Z,16.70
2016-12-14T00:28:10.460Z,16.70
2016-12-14T00:29:11.553Z,16.70
2016-12-14T00:30:12.189Z,16.70
2016-12-14T00:31:13.001Z,16.60
2016-12-14T00:32:09.185Z,16.70
2016-12-14T00:33:12.540Z,16.60
2016-12-14T00:34:13.608Z,16.60
2016-12-14T00:35:11.834Z,16.70
2016-12-14T00:36:09.675Z,16.70
2016-12-14T00:37:12.044Z,16.70
2016-12-14T00:38:13.122Z,16.70
2016-12-14T00:39:11.264Z,16.70
2016-12-14T00:40:12.449Z,16.70
2016-12-14T00:41:12.589Z,16.70
2016-12-14T00:42:11.867Z,16.70
2016-12-14T00:43:10.341Z,16.70
2016-12-14T00:44:12.527Z,16.70
2016-12-14T00:45:11.685Z,16.70
2016-12-14T00:46:11.780Z,16.60
2016-12-14T00:47:12.493Z,16.60
2016-12-14T00:48:12.477Z,16.70
2016-12-14T00:49:13.532Z,16.70
2016-12-14T00:50:11.732Z,16.70
2016-12-14T00:51:12.280Z,16.70
2016-12-14T00:52:11.946Z,16.70
2016-12-14T00:53:12.424Z,16.70
2016-12-14T00:54:11.724Z,16.70
2016-12-14T00:55:13.694Z,16.70
2016-12-14T00:56:12.496Z,16.60
2016-12-14T00:57:09.273Z,16.70
2016-12-14T00:58:11.923Z,16.70
2016-12-14T00:59:12.115Z,16.70
2016-12-14T01:00:13.725Z,16.70
2016-12-14T01:01:13.238Z,16.70
2016-12-14T01:02:12.572Z,16.70
2016-12-14T01:03:13.073Z,16.70
2016-12-14T01:04:13.216Z,16.60
2016-12-14T01:05:08.737Z,16.70
2016-12-14T01:06:12.105Z,16.60
2016-12-14T01:07:14.625Z,16.60
2016-12-14T01:08:11.736Z,16.60
2016-12-14T01:09:14.449Z,16.70
2016-12-14T01:10:13.956Z,16.70
2016-12-14T01:11:15.815Z,16.60
2016-12-14T01:12:13.427Z,16.60
2016-12-14T01:13:08.673Z,16.70
2016-12-14T01:14:14.181Z,16.60
2016-12-14T01:15:13.335Z,16.60
2016-12-14T01:16:12.642Z,16.60
2016-12-14T01:17:11.753Z,16.60
2016-12-14T01:18:14.411Z,16.60
2016-12-14T01:19:11.786Z,16.60
2016-12-14T01:20:13.460Z,16.60
2016-12-14T01:21:13.010Z,16.60
2016-12-14T01:22:12.178Z,16.60
2016-12-14T01:23:13.524Z,16.60
2016-12-14T01:24:15.208Z,16.60
2016-12-14T01:25:12.495Z,16.60
2016-12-14T01:26:12.827Z,16.60
2016-12-14T01:27:12.995Z,16.60
2016-12-14T01:28:11.979Z,16.60
2016-12-14T01:29:12.907Z,16.60
2016-12-14T01:30:11.447Z,16.60
2016-12-14T01:31:11.628Z,16.60
2016-12-14T01:32:11.923Z,16.60
2016-12-14T01:33:12.523Z,16.60
2016-12-14T01:34:10.239Z,16.60
2016-12-14T01:35:12.823Z,16.60
2016-12-14T01:36:10.587Z,16.60
2016-12-14T01:37:11.834Z,16.60
2016-12-14T01:38:12.382Z,16.60
2016-12-14T01:39:11.808Z,16.60
2016-12-14T01:40:12.362Z,16.60
2016-12-14T01:41:12.204Z,16.60
2016-12-14T01:42:12.155Z,16.60
2016-12-14T01:43:08.958Z,16.60
2016-12-14T01:44:11.859Z,16.60
2016-12-14T01:45:12.112Z,16.60
2016-12-14T01:46:12.645Z,16.60
2016-12-14T01:47:13.363Z,16.60
2016-12-14T01:48:11.727Z,16.60
2016-12-14T01:49:09.047Z,16.60
2016-12-14T01:50:11.643Z,16.60
2016-12-14T01:51:14.106Z,16.70
2016-12-14T01:52:11.412Z,16.60
2016-12-14T01:53:11.645Z,16.60
2016-12-14T01:54:11.928Z,16.60
2016-12-14T01:55:12.756Z,16.60
2016-12-14T01:56:15.728Z,16.60
2016-12-14T01:57:12.162Z,16.60
2016-12-14T01:58:09.953Z,16.60
2016-12-14T01:59:12.281Z,16.60
2016-12-14T02:00:11.697Z,16.60
2016-12-14T02:01:09.667Z,16.60
2016-12-14T02:02:11.921Z,16.60
2016-12-14T02:03:12.704Z,16.60
2016-12-14T02:04:11.969Z,16.60
2016-12-14T02:05:12.830Z,16.70
2016-12-14T02:06:12.170Z,16.70
2016-12-14T02:07:12.184Z,16.70
2016-12-14T02:08:11.326Z,16.70
2016-12-14T02:09:11.709Z,16.60
2016-12-14T02:10:12.736Z,16.70
2016-12-14T02:11:14.074Z,16.70
2016-12-14T02:12:12.111Z,16.70
2016-12-14T02:13:08.546Z,16.70
2016-12-14T02:14:12.821Z,16.60
2016-12-14T02:15:10.611Z,16.70
2016-12-14T02:16:12.540Z,16.60
2016-12-14T02:17:12.689Z,16.70
2016-12-14T02:18:11.814Z,16.70
2016-12-14T02:19:13.443Z,16.60
2016-12-14T02:20:12.185Z,16.70
2016-12-14T02:21:12.225Z,16.70
2016-12-14T02:22:12.131Z,16.60
2016-12-14T02:23:11.430Z,16.60
2016-12-14T02:24:13.674Z,16.70
2016-12-14T02:25:12.685Z,16.70
2016-12-14T02:26:14.351Z,16.60
2016-12-14T02:27:11.647Z,16.70
2016-12-14T02:28:13.622Z,16.70
2016-12-14T02:29:12.943Z,16.70
2016-12-14T02:30:12.549Z,16.70
2016-12-14T02:31:11.804Z,16.70
2016-12-14T02:32:11.914Z,16.70
2016-12-14T02:33:11.911Z,16.70
2016-12-14T02:34:12.838Z,16.70
2016-12-14T02:35:12.678Z,16.70
2016-12-14T02:36:12.514Z,16.70
2016-12-14T02:37:12.394Z,16.70
2016-12-14T02:38:12.198Z,16.70
2016-12-14T02:39:11.812Z,16.70
2016-12-14T02:40:12.828Z,16.70
2016-12-14T02:41:14.471Z,16.70
2016-12-14T02:42:12.077Z,16.70
2016-12-14T02:43:12.151Z,16.70
2016-12-14T02:44:11.551Z,16.70
2016-12-14T02:45:12.463Z,16.70
2016-12-14T02:46:12.171Z,16.70
2016-12-14T02:47:12.957Z,16.70
2016-12-14T02:48:12.045Z,16.70
2016-12-14T02:49:12.354Z,16.70
2016-12-14T02:50:12.045Z,16.70
2016-12-14T02:51:13.154Z,16.70
2016-12-14T02:52:11.944Z,16.70
2016-12-14T02:53:12.705Z,16.70
2016-12-14T02:54:12.780Z,16.70
2016-12-14T02:55:11.905Z,16.70
2016-12-14T02:56:14.174Z,16.70
2016-12-14T02:57:12.339Z,16.70
2016-12-14T02:58:12.075Z,16.70
2016-12-14T02:59:11.438Z,16.70
2016-12-14T03:00:12.113Z,16.70
2016-12-14T03:01:14.636Z,16.70
2016-12-14T03:02:12.608Z,16.70
2016-12-14T03:03:11.882Z,16.70
2016-12-14T03:04:10.536Z,16.70
2016-12-14T03:05:11.928Z,16.70
2016-12-14T03:06:12.694Z,16.70
2016-12-14T03:07:12.915Z,16.70
2016-12-14T03:08:09.721Z,16.70
2016-12-14T03:09:12.313Z,16.70
2016-12-14T03:10:12.768Z,16.70
2016-12-14T03:11:12.931Z,16.70
2016-12-14T03:12:13.551Z,16.70
2016-12-14T03:13:09.990Z,16.70
2016-12-14T03:14:11.703Z,16.70
2016-12-14T03:15:12.682Z,16.70
2016-12-14T03:16:13.654Z,16.70
2016-12-14T03:17:14.059Z,16.70
2016-12-14T03:18:11.580Z,16.70
2016-12-14T03:19:12.578Z,16.70
2016-12-14T03:20:12.256Z,16.70
2016-12-14T03:21:12.674Z,16.70
2016-12-14T03:22:11.844Z,16.70
2016-12-14T03:23:12.259Z,16.70
2016-12-14T03:24:11.702Z,16.70
2016-12-14T03:25:12.663Z,16.70
2016-12-14T03:26:13.244Z,16.70
2016-12-14T03:27:11.445Z,16.70
2016-12-14T03:28:12.921Z,16.70
2016-12-14T03:29:09.761Z,16.70
2016-12-14T03:30:12.285Z,16.70
2016-12-14T03:31:12.084Z,16.70
2016-12-14T03:32:09.211Z,16.70
2016-12-14T03:33:12.525Z,16.70
2016-12-14T03:34:08.916Z,16.70
2016-12-14T03:35:12.244Z,16.60
2016-12-14T03:36:12.368Z,16.70
2016-12-14T03:37:12.289Z,16.70
2016-12-14T03:38:11.948Z,16.70
2016-12-14T03:39:12.571Z,16.70
2016-12-14T03:40:12.804Z,16.60
2016-12-14T03:41:11.241Z,16.70
2016-12-14T03:42:12.485Z,16.70
2016-12-14T03:43:08.774Z,16.60
2016-12-14T03:44:12.421Z,16.70
2016-12-14T03:45:12.084Z,16.70
2016-12-14T03:46:12.001Z,16.70
2016-12-14T03:47:12.235Z,16.60
2016-12-14T03:48:11.998Z,16.70
2016-12-14T03:49:12.131Z,16.60
2016-12-14T03:50:12.858Z,16.70
2016-12-14T03:51:11.954Z,16.60
2016-12-14T03:52:12.224Z,16.70
2016-12-14T03:53:14.162Z,16.60
2016-12-14T03:54:11.750Z,16.60
2016-12-14T03:55:12.334Z,16.60
2016-12-14T03:56:12.588Z,16.60
2016-12-14T03:57:12.003Z,16.70
2016-12-14T03:58:11.614Z,16.60
2016-12-14T03:59:14.142Z,16.60
2016-12-14T04:00:12.247Z,16.60
2016-12-14T04:01:11.932Z,16.60
2016-12-14T04:02:12.564Z,16.70
2016-12-14T04:03:10.405Z,16.60
2016-12-14T04:04:12.564Z,16.60
2016-12-14T04:05:12.247Z,16.60
2016-12-14T04:06:11.613Z,16.60
2016-12-14T04:07:12.702Z,16.70
2016-12-14T04:08:12.093Z,16.60
2016-12-14T04:09:10.061Z,16.70
2016-12-14T04:10:12.793Z,16.70
2016-12-14T04:11:13.793Z,16.70
2016-12-14T04:12:12.155Z,16.60
2016-12-14T04:13:12.261Z,16.60
2016-12-14T04:14:11.651Z,16.60
2016-12-14T04:15:12.394Z,16.60
2016-12-14T04:16:08.789Z,16.70
2016-12-14T04:17:12.031Z,16.70
2016-12-14T04:18:13.126Z,16.60
2016-12-14T04:19:11.585Z,16.70
2016-12-14T04:20:12.220Z,16.70
2016-12-14T04:21:13.138Z,16.70
2016-12-14T04:22:08.630Z,16.70
2016-12-14T04:23:12.485Z,16.60
2016-12-14T04:24:12.158Z,16.70
2016-12-14T04:25:11.836Z,16.70
2016-12-14T04:26:13.591Z,16.60
2016-12-14T04:27:12.449Z,16.70
2016-12-14T04:28:12.535Z,16.70
2016-12-14T04:29:08.995Z,16.70
2016-12-14T04:30:10.070Z,16.70
2016-12-14T04:31:12.384Z,16.60
2016-12-14T04:32:12.937Z,16.70
2016-12-14T04:33:10.283Z,16.70
2016-12-14T04:34:12.281Z,16.70
2016-12-14T04:35:11.876Z,16.70
2016-12-14T04:36:13.364Z,16.70
2016-12-14T04:37:11.558Z,16.70
2016-12-14T04:38:11.787Z,16.70
2016-12-14T04:39:11.939Z,16.70
2016-12-14T04:40:13.463Z,16.60
2016-12-14T04:41:13.100Z,16.70
2016-12-14T04:42:11.814Z,16.60
2016-12-14T04:43:12.067Z,16.70
2016-12-14T04:44:09.043Z,16.70
2016-12-14T04:45:11.910Z,16.70
2016-12-14T04:46:10.211Z,16.70
2016-12-14T04:47:13.697Z,16.70
2016-12-14T04:48:12.918Z,16.70
2016-12-14T04:49:11.938Z,16.70
2016-12-14T04:50:12.176Z,16.70
2016-12-14T04:51:12.781Z,16.70
2016-12-14T04:52:12.632Z,16.70
2016-12-14T04:53:11.847Z,16.70
2016-12-14T04:54:12.982Z,16.70
2016-12-14T04:55:13.614Z,16.70
2016-12-14T04:56:12.982Z,16.70
2016-12-14T04:57:10.135Z,16.70
2016-12-14T04:58:12.422Z,16.70
2016-12-14T04:59:13.312Z,16.70
2016-12-14T05:00:13.244Z,16.70
2016-12-14T05:01:12.334Z,16.70
2016-12-14T05:02:12.122Z,16.70
2016-12-14T05:03:10.126Z,16.70
2016-12-14T05:04:12.827Z,16.70
2016-12-14T05:05:12.572Z,16.70
2016-12-14T05:06:10.186Z,16.70
2016-12-14T05:07:13.044Z,16.70
2016-12-14T05:08:10.343Z,16.70
2016-12-14T05:09:11.412Z,16.70
2016-12-14T05:10:11.915Z,16.70
2016-12-14T05:11:12.304Z,16.70
2016-12-14T05:12:12.220Z,16.70
2016-12-14T05:13:08.702Z,16.70
2016-12-14T05:14:13.216Z,16.70
2016-12-14T05:15:11.989Z,16.70
2016-12-14T05:16:10.874Z,16.70
2016-12-14T05:17:12.790Z,16.70
2016-12-14T05:18:11.755Z,16.70
2016-12-14T05:19:11.925Z,16.70
2016-12-14T05:20:13.204Z,16.70
2016-12-14T05:21:12.296Z,16.70
2016-12-14T05:22:12.092Z,16.70
2016-12-14T05:23:11.791Z,16.70
2016-12-14T05:24:11.906Z,16.70
2016-12-14T05:25:15.450Z,16.70
2016-12-14T05:26:12.324Z,16.70
2016-12-14T05:27:12.182Z,16.70
2016-12-14T05:28:11.804Z,16.70
2016-12-14T05:29:11.313Z,16.70
2016-12-14T05:30:12.441Z,16.70
2016-12-14T05:31:12.602Z,16.70
2016-12-14T05:32:12.064Z,16.70
2016-12-14T05:33:11.454Z,16.70
2016-12-14T05:34:13.153Z,16.70
2016-12-14T05:35:14.084Z,16.70
2016-12-14T05:36:12.662Z,16.70
2016-12-14T05:37:12.446Z,16.70
2016-12-14T05:38:12.232Z,16.70
2016-12-14T05:39:11.469Z,16.70
2016-12-14T05:40:12.711Z,16.70
2016-12-14T05:41:12.950Z,16.70
2016-12-14T05:42:12.094Z,16.70
2016-12-14T05:43:13.381Z,16.70
2016-12-14T05:44:12.709Z,16.70
2016-12-14T05:45:12.828Z,16.70
2016-12-14T05:46:11.754Z,16.70
2016-12-14T05:47:11.458Z,16.70
2016-12-14T05:48:09.243Z,16.70
2016-12-14T05:49:12.219Z,16.70
2016-12-14T05:50:12.502Z,16.70
2016-12-14T05:51:12.623Z,16.70
2016-12-14T05:52:09.455Z,16.70
2016-12-14T05:53:12.971Z,16.70
2016-12-14T05:54:12.200Z,16.70
2016-12-14T05:55:11.403Z,16.70
2016-12-14T05:56:12.354Z,16.70
2016-12-14T05:57:13.275Z,16.70
2016-12-14T05:58:12.453Z,16.70
2016-12-14T05:59:11.873Z,16.70
2016-12-14T06:00:12.761Z,16.70
2016-12-14T06:01:11.865Z,16.70
2016-12-14T06:02:11.904Z,16.70
2016-12-14T06:03:12.180Z,16.70
2016-12-14T06:04:11.662Z,16.70
2016-12-14T06:05:12.839Z,16.70
2016-12-14T06:06:12.083Z,16.70
2016-12-14T06:07:11.592Z,16.70
2016-12-14T06:08:13.054Z,16.70
2016-12-14T06:09:12.139Z,16.70
2016-12-14T06:10:11.678Z,16.70
2016-12-14T06:11:11.492Z,16.70
2016-12-14T06:12:11.991Z,16.70
2016-12-14T06:13:12.922Z,16.70
2016-12-14T06:14:12.259Z,16.70
2016-12-14T06:15:12.284Z,16.70
2016-12-14T06:16:10.272Z,16.70
2016-12-14T06:17:12.507Z,16.70
2016-12-14T06:18:10.507Z,16.70
2016-12-14T06:19:13.672Z,16.60
2016-12-14T06:20:12.048Z,16.60
2016-12-14T06:21:14.103Z,16.60
2016-12-14T06:22:11.463Z,16.70
2016-12-14T06:23:12.142Z,16.70
2016-12-14T06:24:08.947Z,16.70
2016-12-14T06:25:12.762Z,16.70
2016-12-14T06:26:13.158Z,16.70
2016-12-14T06:27:11.918Z,16.60
2016-12-14T06:28:12.696Z,16.70
2016-12-14T06:29:12.017Z,16.60
2016-12-14T06:30:11.637Z,16.70
2016-12-14T06:31:12.435Z,16.70
2016-12-14T06:32:10.307Z,16.70
2016-12-14T06:33:12.445Z,16.60
2016-12-14T06:34:12.304Z,16.60
2016-12-14T06:35:11.805Z,16.60
2016-12-14T06:36:12.189Z,16.60
2016-12-14T06:37:12.295Z,16.60
2016-12-14T06:38:11.794Z,16.60
2016-12-14T06:39:10.035Z,16.60
2016-12-14T06:40:13.084Z,16.60
2016-12-14T06:41:12.331Z,16.60
2016-12-14T06:42:12.326Z,16.60
2016-12-14T06:43:12.289Z,16.60
2016-12-14T06:44:11.766Z,16.60
2016-12-14T06:45:12.526Z,16.70
2016-12-14T06:46:12.238Z,16.70
2016-12-14T06:47:11.685Z,16.70
2016-12-14T06:48:12.093Z,16.70
2016-12-14T06:49:12.022Z,16.70
2016-12-14T06:50:11.928Z,16.70
2016-12-14T06:51:13.025Z,16.70
2016-12-14T06:52:13.362Z,16.70
2016-12-14T06:53:11.743Z,16.70
2016-12-14T06:54:11.915Z,16.70
2016-12-14T06:55:11.846Z,16.70
2016-12-14T06:56:13.000Z,16.70
2016-12-14T06:57:11.849Z,16.70
2016-12-14T06:58:12.533Z,16.70
2016-12-14T06:59:09.717Z,16.70
2016-12-14T07:00:11.889Z,16.70
2016-12-14T07:01:12.076Z,16.70
2016-12-14T07:02:12.989Z,16.70
2016-12-14T07:03:13.596Z,16.70
2016-12-14T07:04:12.292Z,16.70
2016-12-14T07:05:11.751Z,16.70
2016-12-14T07:06:10.246Z,16.70
2016-12-14T07:07:12.796Z,16.70
2016-12-14T07:08:12.680Z,16.70
2016-12-14T07:09:12.525Z,16.70
2016-12-14T07:10:13.433Z,16.70
2016-12-14T07:11:12.563Z,16.70
2016-12-14T07:12:12.415Z,16.60
2016-12-14T07:13:11.882Z,16.60
2016-12-14T07:14:10.078Z,16.60
2016-12-14T07:15:12.873Z,16.60
2016-12-14T07:16:12.555Z,16.60
2016-12-14T07:17:11.940Z,16.60
2016-12-14T07:18:12.494Z,16.60
2016-12-14T07:19:12.174Z,16.60
2016-12-14T07:20:11.916Z,16.60
2016-12-14T07:21:12.064Z,16.60
2016-12-14T07:22:11.983Z,16.60
2016-12-14T07:23:10.758Z,16.60
2016-12-14T07:24:13.985Z,16.60
2016-12-14T07:25:10.431Z,16.70
2016-12-14T07:26:13.782Z,16.70
2016-12-14T07:27:11.983Z,16.70
2016-12-14T07:28:13.584Z,16.70
2016-12-14T07:29:10.651Z,16.70
2016-12-14T07:30:10.796Z,16.70
2016-12-14T07:31:11.557Z,16.70
2016-12-14T07:32:12.552Z,16.70
2016-12-14T07:33:12.335Z,16.70
2016-12-14T07:34:11.958Z,16.70
2016-12-14T07:35:12.701Z,16.70
2016-12-14T07:36:13.516Z,16.00
2016-12-14T07:37:11.783Z,15.10
2016-12-14T07:38:13.553Z,14.30
2016-12-14T07:39:11.765Z,13.70
2016-12-14T07:40:12.559Z,13.60
2016-12-14T07:41:13.628Z,13.80
2016-12-14T07:42:12.298Z,14.00
2016-12-14T07:43:10.550Z,14.30
2016-12-14T07:44:12.916Z,14.60
2016-12-14T07:45:13.035Z,14.80
2016-12-14T07:46:12.504Z,15.00
2016-12-14T07:47:10.299Z,15.30
2016-12-14T07:48:11.845Z,15.40
2016-12-14T07:49:11.926Z,15.60
2016-12-14T07:50:10.140Z,15.70
2016-12-14T07:51:11.862Z,15.80
2016-12-14T07:52:12.277Z,15.80
2016-12-14T07:53:12.052Z,15.90
2016-12-14T07:54:11.706Z,16.00
2016-12-14T07:55:12.363Z,16.10
2016-12-14T07:56:13.783Z,16.10
2016-12-14T07:57:10.383Z,16.20
2016-12-14T07:58:12.110Z,16.20
2016-12-14T07:59:11.462Z,16.20
2016-12-14T08:00:12.549Z,16.30
2016-12-14T08:01:12.116Z,16.30
2016-12-14T08:02:11.966Z,16.30
2016-12-14T08:03:12.713Z,16.30
2016-12-14T08:04:10.525Z,16.40
2016-12-14T08:05:12.188Z,16.40
2016-12-14T08:06:11.755Z,16.40
2016-12-14T08:07:11.953Z,16.40
2016-12-14T08:08:13.202Z,16.40
2016-12-14T08:09:11.513Z,16.40
2016-12-14T08:10:14.197Z,16.50
2016-12-14T08:11:12.707Z,16.50
2016-12-14T08:12:12.748Z,16.50
2016-12-14T08:13:12.078Z,16.50
2016-12-14T08:14:11.504Z,16.50
2016-12-14T08:15:12.340Z,16.50
2016-12-14T08:16:11.806Z,16.50
2016-12-14T08:17:12.582Z,16.50
2016-12-14T08:18:09.596Z,16.50
2016-12-14T08:19:09.231Z,16.50
2016-12-14T08:20:14.187Z,16.50
2016-12-14T08:21:11.690Z,16.50
2016-12-14T08:22:12.014Z,16.50
2016-12-14T08:23:11.638Z,16.50
2016-12-14T08:24:12.481Z,16.60
2016-12-14T08:25:12.319Z,16.50
2016-12-14T08:26:12.651Z,16.60
2016-12-14T08:27:12.459Z,16.50
2016-12-14T08:28:12.635Z,16.60
2016-12-14T08:29:10.463Z,16.60
2016-12-14T08:30:11.985Z,16.60
2016-12-14T08:31:12.714Z,16.60
2016-12-14T08:32:13.136Z,16.60
2016-12-14T08:33:12.494Z,16.60
2016-12-14T08:34:11.939Z,16.60
2016-12-14T08:35:12.001Z,16.60
2016-12-14T08:36:12.102Z,16.60
2016-12-14T08:37:11.558Z,16.60
2016-12-14T08:38:12.764Z,16.60
2016-12-14T08:39:09.660Z,16.60
2016-12-14T08:40:11.702Z,16.60
2016-12-14T08:41:13.707Z,16.60
2016-12-14T08:42:09.065Z,16.60
2016-12-14T08:43:12.498Z,16.60
2016-12-14T08:44:11.972Z,16.60
2016-12-14T08:45:12.235Z,16.60
2016-12-14T08:46:12.016Z,16.60
2016-12-14T08:47:12.266Z,16.60
2016-12-14T08:48:13.216Z,16.60
2016-12-14T08:49:12.025Z,16.60
2016-12-14T08:50:11.476Z,16.60
2016-12-14T08:51:11.773Z,16.60
2016-12-14T08:52:12.199Z,16.60
2016-12-14T08:53:11.579Z,16.60
2016-12-14T08:54:11.987Z,16.60
2016-12-14T08:55:12.533Z,16.60
2016-12-14T08:56:12.913Z,16.60
2016-12-14T08:57:12.629Z,16.60
2016-12-14T08:58:12.077Z,16.60
2016-12-14T08:59:12.243Z,16.60
2016-12-14T09:00:11.793Z,16.60
2016-12-14T09:01:13.716Z,16.60
2016-12-14T09:02:12.415Z,16.60
2016-12-14T09:03:11.615Z,16.60
2016-12-14T09:04:10.436Z,16.60
2016-12-14T09:05:11.967Z,16.60
2016-12-14T09:06:12.276Z,16.60
2016-12-14T09:07:11.616Z,16.60
2016-12-14T09:08:12.393Z,16.60
2016-12-14T09:09:12.055Z,16.60
2016-12-14T09:10:12.319Z,16.60
2016-12-14T09:11:12.653Z,16.60
2016-12-14T09:12:13.853Z,16.60
2016-12-14T09:13:12.499Z,16.60
2016-12-14T09:14:11.829Z,16.60
2016-12-14T09:15:12.295Z,16.60
2016-12-14T09:16:13.536Z,16.60
2016-12-14T09:17:12.557Z,16.60
2016-12-14T09:18:12.355Z,16.60
2016-12-14T09:19:12.093Z,16.60
2016-12-14T09:20:11.925Z,16.60
2016-12-14T09:21:09.690Z,16.60
2016-12-14T09:22:12.154Z,16.60
2016-12-14T09:23:13.245Z,16.60
2016-12-14T09:24:12.272Z,16.60
2016-12-14T09:25:13.237Z,16.60
2016-12-14T09:26:13.545Z,16.60
2016-12-14T09:27:11.927Z,16.60
2016-12-14T09:28:12.154Z,16.60
2016-12-14T09:29:11.564Z,16.60
2016-12-14T09:30:12.373Z,16.60
2016-12-14T09:31:10.254Z,16.60
2016-12-14T09:32:12.064Z,16.60
2016-12-14T09:33:13.144Z,16.60
2016-12-14T09:34:11.515Z,16.60
2016-12-14T09:35:11.797Z,16.60
2016-12-14T09:36:12.799Z,16.60
2016-12-14T09:37:12.641Z,16.60
2016-12-14T09:38:12.808Z,16.60
2016-12-14T09:39:12.064Z,16.60
2016-12-14T09:40:12.004Z,16.60
2016-12-14T09:41:13.056Z,16.60
2016-12-14T09:42:12.153Z,16.60
2016-12-14T09:43:13.096Z,16.60
2016-12-14T09:44:11.414Z,16.60
2016-12-14T09:45:12.671Z,16.60
2016-12-14T09:46:11.923Z,16.60
2016-12-14T09:47:12.066Z,16.60
2016-12-14T09:48:12.030Z,16.60
2016-12-14T09:49:10.770Z,16.60
2016-12-14T09:50:11.632Z,16.60
2016-12-14T09:51:12.601Z,16.70
2016-12-14T09:52:11.977Z,16.60
2016-12-14T09:53:12.636Z,16.70
2016-12-14T09:54:12.846Z,16.70
2016-12-14T09:55:12.627Z,16.70
2016-12-14T09:56:13.294Z,16.70
2016-12-14T09:57:11.794Z,16.70
2016-12-14T09:58:12.251Z,16.70
2016-12-14T09:59:11.775Z,16.70
2016-12-14T10:00:12.776Z,16.70
2016-12-14T10:01:11.785Z,16.70
2016-12-14T10:02:12.134Z,16.70
2016-12-14T10:03:11.656Z,16.70
2016-12-14T10:04:12.713Z,16.70
2016-12-14T10:05:11.661Z,16.70
2016-12-14T10:06:12.405Z,16.70
2016-12-14T10:07:12.309Z,16.60
2016-12-14T10:08:11.816Z,16.70
2016-12-14T10:09:12.735Z,16.60
2016-12-14T10:10:12.315Z,16.70
2016-12-14T10:11:13.672Z,16.70
2016-12-14T10:12:12.332Z,16.70
2016-12-14T10:13:11.847Z,16.70
2016-12-14T10:14:10.628Z,16.70
2016-12-14T10:15:12.047Z,16.70
2016-12-14T10:16:11.527Z,16.70
2016-12-14T10:17:12.477Z,16.70
2016-12-14T10:18:08.916Z,16.70
2016-12-14T10:19:12.207Z,16.70
2016-12-14T10:20:11.562Z,16.70
2016-12-14T10:21:09.643Z,16.70
2016-12-14T10:22:11.845Z,16.70
2016-12-14T10:23:10.632Z,16.70
2016-12-14T10:24:12.623Z,16.70
2016-12-14T10:25:12.126Z,16.70
2016-12-14T10:26:12.236Z,16.70
2016-12-14T10:27:15.446Z,16.70
2016-12-14T10:28:13.215Z,16.70
2016-12-14T10:29:12.437Z,16.70
2016-12-14T10:30:11.807Z,16.70
2016-12-14T10:31:12.683Z,16.70
2016-12-14T10:32:12.595Z,16.70
2016-12-14T10:33:10.658Z,16.70
2016-12-14T10:34:09.448Z,16.70
2016-12-14T10:35:13.153Z,16.70
2016-12-14T10:36:11.982Z,16.70
2016-12-14T10:37:12.437Z,16.70
2016-12-14T10:38:12.156Z,16.70
2016-12-14T10:39:11.486Z,16.70
2016-12-14T10:40:11.956Z,16.70
2016-12-14T10:41:13.279Z,16.70
2016-12-14T10:42:14.342Z,16.70
2016-12-14T10:43:12.208Z,16.70
2016-12-14T10:44:12.535Z,16.70
2016-12-14T10:45:12.119Z,16.70
2016-12-14T10:46:12.202Z,16.70
2016-12-14T10:47:11.434Z,16.70
2016-12-14T10:48:11.795Z,16.70
2016-12-14T10:49:12.748Z,16.70
2016-12-14T10:50:12.012Z,16.70
2016-12-14T10:51:11.538Z,16.70
2016-12-14T10:52:12.666Z,16.70
2016-12-14T10:53:15.628Z,16.70
2016-12-14T10:54:12.478Z,16.70
2016-12-14T10:55:11.837Z,16.70
2016-12-14T10:56:12.590Z,16.70
2016-12-14T10:57:11.935Z,16.70
2016-12-14T10:58:12.604Z,16.70
2016-12-14T10:59:11.998Z,16.70
2016-12-14T11:00:09.225Z,16.70
2016-12-14T11:01:11.834Z,16.70
2016-12-14T11:02:12.087Z,16.70
2016-12-14T11:03:11.974Z,16.70
2016-12-14T11:04:09.439Z,16.70
2016-12-14T11:05:12.416Z,16.70
2016-12-14T11:06:12.264Z,16.70
2016-12-14T11:07:12.377Z,16.70
2016-12-14T11:08:12.501Z,16.70
2016-12-14T11:09:14.361Z,16.70
2016-12-14T11:10:11.910Z,16.70
2016-12-14T11:11:13.775Z,16.70
2016-12-14T11:12:12.896Z,16.70
2016-12-14T11:13:09.297Z,16.70
2016-12-14T11:14:12.440Z,16.70
2016-12-14T11:15:10.296Z,16.70
2016-12-14T11:16:12.039Z,16.70
2016-12-14T11:17:13.093Z,16.80
2016-12-14T11:18:12.053Z,16.70
2016-12-14T11:19:11.461Z,16.70
2016-12-14T11:20:11.905Z,16.70
2016-12-14T11:21:12.126Z,16.70
2016-12-14T11:22:11.982Z,16.80
2016-12-14T11:23:12.220Z,16.70
2016-12-14T11:24:12.386Z,16.70
2016-12-14T11:25:11.958Z,16.70
2016-12-14T11:26:14.042Z,16.70
2016-12-14T11:27:11.865Z,16.70
2016-12-14T11:28:12.667Z,16.70
2016-12-14T11:29:12.027Z,16.70
2016-12-14T11:30:11.354Z,16.70
2016-12-14T11:31:12.618Z,16.70
2016-12-14T11:32:11.738Z,16.70
2016-12-14T11:33:12.327Z,16.70
2016-12-14T11:34:11.871Z,16.70
2016-12-14T11:35:13.532Z,16.70
2016-12-14T11:36:12.147Z,16.70
2016-12-14T11:37:14.130Z,16.70
2016-12-14T11:38:11.578Z,16.70
2016-12-14T11:39:09.105Z,16.70
2016-12-14T11:40:12.444Z,16.70
2016-12-14T11:41:12.885Z,16.70
2016-12-14T11:42:12.980Z,16.70
2016-12-14T11:43:09.298Z,16.70
2016-12-14T11:44:13.520Z,16.70
2016-12-14T11:45:11.931Z,16.70
2016-12-14T11:46:13.912Z,16.70
2016-12-14T11:47:10.823Z,16.70
2016-12-14T11:48:12.958Z,16.70
2016-12-14T11:49:12.705Z,16.70
2016-12-14T11:50:12.587Z,16.70
2016-12-14T11:51:11.960Z,16.70
2016-12-14T11:52:12.227Z,16.70
2016-12-14T11:53:12.095Z,16.70
2016-12-14T11:54:11.455Z,16.70
2016-12-14T11:55:12.400Z,16.70
2016-12-14T11:56:13.649Z,16.70
2016-12-14T11:57:12.574Z,16.70
2016-12-14T11:58:12.065Z,16.70
2016-12-14T11:59:11.938Z,16.70
2016-12-14T12:00:12.558Z,16.70
2016-12-14T12:01:11.930Z,16.70
2016-12-14T12:02:12.931Z,16.70
2016-12-14T12:03:10.342Z,16.70
2016-12-14T12:04:12.550Z,16.70
2016-12-14T12:05:12.768Z,16.70
2016-12-14T12:06:12.393Z,16.70
2016-12-14T12:07:12.394Z,16.70
2016-12-14T12:08:11.814Z,16.70
2016-12-14T12:09:12.870Z,16.80
2016-12-14T12:10:09.224Z,16.80
2016-12-14T12:11:09.387Z,16.70
2016-12-14T12:12:11.498Z,16.70
2016-12-14T12:13:09.034Z,16.70
2016-12-14T12:14:11.785Z,16.70
2016-12-14T12:15:13.647Z,16.70
2016-12-14T12:16:11.806Z,16.70
2016-12-14T12:17:12.649Z,16.70
2016-12-14T12:18:13.432Z,16.80
2016-12-14T12:19:11.958Z,16.70
2016-12-14T12:20:12.831Z,16.70
2016-12-14T12:21:12.591Z,16.80
2016-12-14T12:22:12.394Z,16.70
2016-12-14T12:23:12.337Z,16.80
2016-12-14T12:24:12.166Z,16.80
2016-12-14T12:25:11.959Z,16.80
2016-12-14T12:26:12.717Z,16.70
2016-12-14T12:27:12.130Z,16.70
2016-12-14T12:28:13.411Z,16.80
2016-12-14T12:29:11.907Z,16.80
2016-12-14T12:30:10.315Z,16.80
2016-12-14T12:31:11.594Z,16.80
2016-12-14T12:32:12.475Z,16.80
2016-12-14T12:33:11.909Z,16.80
2016-12-14T12:34:13.763Z,16.80
2016-12-14T12:35:12.904Z,16.80
2016-12-14T12:36:12.618Z,16.80
2016-12-14T12:37:09.610Z,16.80
2016-12-14T12:38:12.083Z,16.70
2016-12-14T12:39:12.339Z,16.70
2016-12-14T12:40:11.937Z,16.80
2016-12-14T12:41:12.586Z,16.80
2016-12-14T12:42:12.448Z,16.80
2016-12-14T12:43:12.316Z,16.70
2016-12-14T12:44:12.453Z,16.70
2016-12-14T12:45:11.904Z,16.70
2016-12-14T12:46:12.577Z,16.70
2016-12-14T12:47:11.839Z,16.70
2016-12-14T12:48:12.458Z,16.80
2016-12-14T12:49:11.836Z,16.70
2016-12-14T12:50:09.249Z,16.80
2016-12-14T12:51:12.366Z,16.80
2016-12-14T12:52:11.901Z,16.70